Time;durP1;ratioP1;P1;durP2;ratioP2;P2;SDS_P1;SDS_P2;PMS_P1;PMS_P2;Temp;Humidity;BMP_temperature;BMP_pressure;BME280_temperature;BME280_humidity;BME280_pressure;Samples;Min_cycle;Max_cycle;Signal;HPM_P1;HPM_P2
2023/03/16 00:02:19;;;;;;;9.73;5.17;;;1.80;99.90;;;;;;10467775;28;20549;-79
2023/03/16 00:07:41;;;;;;;14.30;5.27;;;1.80;99.90;;;;;;10495778;28;20399;-79
2023/03/16 00:13:02;;;;;;;13.90;5.57;;;1.70;99.90;;;;;;10466638;28;20205;-79
2023/03/16 00:18:26;;;;;;;11.57;5.37;;;1.60;99.90;;;;;;10481038;28;20193;-78
2023/03/16 00:23:47;;;;;;;10.77;5.77;;;1.60;99.90;;;;;;10465758;28;20240;-79
2023/03/16 00:29:08;;;;;;;15.40;7.10;;;1.60;99.90;;;;;;10444993;28;20439;-79
2023/03/16 00:34:33;;;;;;;15.20;7.20;;;1.60;99.90;;;;;;10460303;28;20200;-79
2023/03/16 00:39:56;;;;;;;16.17;7.87;;;1.50;99.90;;;;;;10465263;28;20543;-77
2023/03/16 00:45:17;;;;;;;16.80;8.47;;;1.50;99.90;;;;;;10439023;28;20192;-77
2023/03/16 00:50:38;;;;;;;12.97;7.07;;;1.50;99.90;;;;;;10424341;28;20212;-79
2023/03/16 00:56:03;;;;;;;13.23;6.30;;;1.40;99.90;;;;;;10428959;28;20244;-79
2023/03/16 01:01:26;;;;;;;14.80;5.87;;;1.30;99.90;;;;;;10464228;28;20298;-77
2023/03/16 01:06:48;;;;;;;9.33;5.37;;;1.30;99.90;;;;;;10465983;28;20188;-79
2023/03/16 01:12:13;;;;;;;6.87;4.27;;;1.30;99.90;;;;;;10480579;28;20211;-79
2023/03/16 01:17:34;;;;;;;7.67;4.73;;;1.30;99.90;;;;;;10472442;28;20268;-79
2023/03/16 01:22:55;;;;;;;7.63;4.03;;;1.30;99.90;;;;;;10464569;28;20421;-79
2023/03/16 01:28:16;;;;;;;8.50;4.53;;;1.30;99.90;;;;;;10450775;28;20504;-79
2023/03/16 01:33:37;;;;;;;11.90;5.80;;;1.30;99.90;;;;;;10481783;28;20426;-78
2023/03/16 01:39:03;;;;;;;10.17;4.90;;;1.20;99.90;;;;;;10478341;28;20451;-79
2023/03/16 01:44:50;;;;;;;9.20;4.23;;;1.20;99.90;;;;;;10477790;28;20193;-79
2023/03/16 01:50:11;;;;;;;9.10;5.10;;;1.20;99.90;;;;;;10428126;28;20209;-77
2023/03/16 01:55:35;;;;;;;12.37;5.43;;;1.20;99.90;;;;;;10452914;28;20231;-78
2023/03/16 02:00:59;;;;;;;6.57;4.40;;;1.20;99.90;;;;;;10476338;28;20233;-77
2023/03/16 02:06:22;;;;;;;6.23;4.30;;;1.10;99.90;;;;;;10449653;28;20202;-78
2023/03/16 02:11:48;;;;;;;7.63;4.20;;;1.20;99.90;;;;;;10464575;28;20205;-77
2023/03/16 02:17:11;;;;;;;9.87;5.67;;;1.10;99.90;;;;;;10456471;28;20205;-78
2023/03/16 02:22:35;;;;;;;10.43;5.63;;;1.10;99.90;;;;;;10473066;28;20546;-78
2023/03/16 02:28:15;;;;;;;14.60;6.30;;;1.20;99.90;;;;;;10492801;28;20193;-79
2023/03/16 02:33:40;;;;;;;10.37;5.23;;;1.20;99.90;;;;;;10463311;28;20196;-77
2023/03/16 02:39:02;;;;;;;11.47;5.60;;;1.20;99.90;;;;;;10460639;28;20206;-78
2023/03/16 02:44:32;;;;;;;8.87;5.13;;;1.20;99.90;;;;;;10462891;28;20304;-79
2023/03/16 02:49:56;;;;;;;10.57;5.37;;;1.30;99.90;;;;;;10475752;28;20197;-78
2023/03/16 02:55:17;;;;;;;10.63;6.10;;;1.40;99.90;;;;;;10464426;28;20232;-76
2023/03/16 03:00:41;;;;;;;13.63;7.03;;;1.40;99.90;;;;;;10470182;28;20266;-78
2023/03/16 03:06:02;;;;;;;13.63;6.93;;;1.40;99.90;;;;;;10485309;28;20291;-77
2023/03/16 03:11:29;;;;;;;16.47;6.93;;;1.40;99.90;;;;;;10482969;28;20491;-78
2023/03/16 03:16:51;;;;;;;14.10;6.60;;;1.40;99.90;;;;;;10484935;28;20204;-79
2023/03/16 03:22:17;;;;;;;14.77;7.23;;;1.50;99.90;;;;;;10483706;28;20251;-79
2023/03/16 03:27:41;;;;;;;14.90;7.77;;;1.50;99.90;;;;;;10489657;28;20258;-79
2023/03/16 03:33:06;;;;;;;15.63;7.67;;;1.50;99.90;;;;;;10469702;28;20448;-79
2023/03/16 03:38:28;;;;;;;13.60;7.63;;;1.40;99.90;;;;;;10467455;28;20471;-79
2023/03/16 03:43:49;;;;;;;18.43;9.00;;;1.30;99.90;;;;;;10454897;28;20425;-79
2023/03/16 03:49:12;;;;;;;24.73;10.83;;;1.20;99.90;;;;;;10468167;28;20420;-79
2023/03/16 03:54:33;;;;;;;22.17;11.40;;;1.20;99.90;;;;;;10467153;28;20204;-79
2023/03/16 03:59:58;;;;;;;16.60;9.90;;;1.20;99.90;;;;;;10482058;28;20195;-79
2023/03/16 04:05:37;;;;;;;14.57;8.40;;;1.10;99.90;;;;;;10498028;28;20227;-79
2023/03/16 04:10:59;;;;;;;16.90;8.50;;;1.10;99.90;;;;;;10463179;28;20498;-79
2023/03/16 04:16:21;;;;;;;18.90;9.83;;;1.00;99.90;;;;;;10440309;28;20193;-79
2023/03/16 04:21:46;;;;;;;15.80;8.00;;;1.00;99.90;;;;;;10442445;28;20265;-79
2023/03/16 04:27:07;;;;;;;12.10;7.13;;;1.00;99.90;;;;;;10477277;28;20249;-80
2023/03/16 04:32:29;;;;;;;14.47;8.03;;;0.90;99.90;;;;;;10480898;28;20207;-79
2023/03/16 04:37:50;;;;;;;13.23;7.80;;;0.80;99.90;;;;;;10480530;28;20188;-79
2023/03/16 04:43:16;;;;;;;14.40;6.63;;;0.80;99.90;;;;;;10464538;28;20227;-78
2023/03/16 04:48:38;;;;;;;18.10;7.60;;;0.90;99.90;;;;;;10480154;28;20187;-79
2023/03/16 04:53:59;;;;;;;15.03;7.63;;;1.00;99.90;;;;;;10464690;28;20280;-79
2023/03/16 04:59:26;;;;;;;14.93;7.10;;;1.00;99.90;;;;;;10475965;28;20258;-79
2023/03/16 05:05:14;;;;;;;12.03;6.83;;;1.00;99.90;;;;;;10495259;28;20222;-79
2023/03/16 05:10:37;;;;;;;9.70;5.70;;;1.00;99.90;;;;;;10463716;28;20231;-80
2023/03/16 05:15:59;;;;;;;14.90;7.73;;;1.00;99.90;;;;;;10464561;28;20510;-79
2023/03/16 05:21:30;;;;;;;19.60;9.73;;;0.90;99.90;;;;;;10485388;28;20228;-78
2023/03/16 05:26:56;;;;;;;15.37;8.40;;;1.00;99.90;;;;;;10487578;28;20275;-79
2023/03/16 05:32:18;;;;;;;20.93;8.60;;;1.10;99.90;;;;;;10487872;28;20220;-79
2023/03/16 05:37:41;;;;;;;15.13;7.30;;;1.20;99.90;;;;;;10458572;28;20201;-78
2023/03/16 05:43:06;;;;;;;16.00;7.93;;;1.30;99.90;;;;;;10422217;28;20229;-77
2023/03/16 05:48:34;;;;;;;17.00;8.23;;;1.50;99.90;;;;;;10471423;28;20490;-78
2023/03/16 05:53:57;;;;;;;13.73;6.33;;;1.50;99.90;;;;;;10477619;28;20637;-77
2023/03/16 05:59:25;;;;;;;15.90;8.23;;;1.50;99.90;;;;;;10477184;28;20220;-77
2023/03/16 06:04:50;;;;;;;18.33;8.63;;;1.50;99.90;;;;;;10459560;28;20280;-78
2023/03/16 06:10:12;;;;;;;19.87;9.80;;;1.60;99.90;;;;;;10476976;28;20187;-78
2023/03/16 06:15:34;;;;;;;23.17;10.80;;;1.60;99.90;;;;;;10477036;28;20243;-78
2023/03/16 06:20:56;;;;;;;24.20;10.13;;;1.60;99.90;;;;;;10447168;28;20243;-78
2023/03/16 06:26:17;;;;;;;24.53;9.30;;;1.70;99.90;;;;;;10476484;28;20276;-77
2023/03/16 06:31:40;;;;;;;19.83;9.67;;;1.80;99.90;;;;;;10481557;28;20195;-77
2023/03/16 06:37:02;;;;;;;18.00;10.13;;;1.90;99.90;;;;;;10458533;28;20228;-78
2023/03/16 06:42:24;;;;;;;19.47;9.37;;;2.00;99.90;;;;;;10443435;28;20244;-78
2023/03/16 06:47:46;;;;;;;13.80;7.50;;;2.10;99.90;;;;;;10443068;28;20516;-77
2023/03/16 06:53:08;;;;;;;13.83;6.73;;;2.20;99.90;;;;;;10485628;28;20274;-78
2023/03/16 06:58:30;;;;;;;16.33;8.53;;;2.30;99.90;;;;;;10465961;28;20282;-78
2023/03/16 07:03:53;;;;;;;14.77;7.10;;;2.30;99.90;;;;;;10468145;28;20237;-79
2023/03/16 07:09:20;;;;;;;14.73;5.97;;;2.40;99.90;;;;;;10483441;28;20211;-79
2023/03/16 07:14:42;;;;;;;15.53;6.73;;;2.40;99.90;;;;;;10455055;28;20197;-77
2023/03/16 07:20:09;;;;;;;17.17;8.00;;;2.50;99.90;;;;;;10480150;28;20484;-78
2023/03/16 07:25:32;;;;;;;19.67;9.73;;;2.60;99.90;;;;;;10447847;28;20292;-78
2023/03/16 07:30:53;;;;;;;16.47;8.67;;;2.70;99.90;;;;;;10498925;28;20359;-78
2023/03/16 07:36:26;;;;;;;13.83;6.83;;;2.80;99.90;;;;;;10465297;28;20199;-78
2023/03/16 07:41:51;;;;;;;14.63;7.90;;;2.90;99.90;;;;;;10466485;28;20335;-78
2023/03/16 07:47:27;;;;;;;26.80;11.47;;;3.00;99.90;;;;;;10467317;28;20198;-81
2023/03/16 07:52:53;;;;;;;26.30;10.40;;;3.00;99.90;;;;;;10441304;28;20220;-79
2023/03/16 07:58:14;;;;;;;21.00;7.57;;;3.00;99.90;;;;;;10460558;28;20233;-79
2023/03/16 08:03:37;;;;;;;18.43;8.63;;;3.10;99.90;;;;;;10452840;28;20428;-79
2023/03/16 08:09:01;;;;;;;21.13;7.73;;;3.20;99.90;;;;;;10466216;28;20285;-80
2023/03/16 08:14:26;;;;;;;11.73;6.13;;;3.10;99.90;;;;;;10503244;28;20234;-80
2023/03/16 08:19:57;;;;;;;20.87;10.93;;;3.20;99.90;;;;;;10521924;28;20185;-79
2023/03/16 08:25:18;;;;;;;21.23;12.97;;;3.20;99.90;;;;;;10516499;28;20225;-80
2023/03/16 08:30:52;;;;;;;17.43;7.97;;;3.20;99.90;;;;;;10438874;28;20195;-78
2023/03/16 08:36:29;;;;;;;14.23;7.47;;;3.10;99.90;;;;;;10478081;28;20242;-79
2023/03/16 08:41:52;;;;;;;12.97;5.60;;;3.10;99.90;;;;;;10476507;28;20280;-79
2023/03/16 08:47:28;;;;;;;16.97;7.47;;;3.20;99.90;;;;;;10464504;28;20201;-79
2023/03/16 08:52:52;;;;;;;15.83;6.80;;;3.30;99.90;;;;;;10450925;28;20220;-79
2023/03/16 08:58:14;;;;;;;19.20;8.33;;;3.50;99.90;;;;;;10453674;28;20229;-78
2023/03/16 09:03:35;;;;;;;17.13;7.30;;;3.80;99.90;;;;;;10476639;28;20295;-84
2023/03/16 09:08:57;;;;;;;12.90;5.03;;;3.90;99.90;;;;;;10430937;28;20214;-78
2023/03/16 09:14:18;;;;;;;5.63;3.07;;;3.90;99.90;;;;;;10453680;28;20199;-80
2023/03/16 09:19:41;;;;;;;10.47;4.30;;;3.90;99.90;;;;;;10469672;28;20197;-79
2023/03/16 09:25:13;;;;;;;7.87;3.20;;;4.00;99.90;;;;;;10472559;28;20536;-83
2023/03/16 09:30:35;;;;;;;5.53;3.17;;;4.20;99.90;;;;;;10490612;28;20222;-88
2023/03/16 09:35:57;;;;;;;7.30;2.60;;;4.10;99.90;;;;;;10471158;28;20225;-79
2023/03/16 09:41:22;;;;;;;7.00;2.60;;;4.10;99.90;;;;;;10439002;28;20254;-80
2023/03/16 09:46:47;;;;;;;11.17;3.90;;;4.00;99.90;;;;;;10472550;28;20196;-80
2023/03/16 09:52:47;;;;;;;8.23;3.03;;;4.00;99.90;;;;;;10452553;28;20265;-79
2023/03/16 09:58:20;;;;;;;4.60;2.63;;;4.20;99.90;;;;;;10444710;28;20774;-79
2023/03/16 10:04:09;;;;;;;5.50;2.97;;;4.50;99.90;;;;;;10472179;28;20304;-79
2023/03/16 10:10:05;;;;;;;18.93;9.80;;;4.60;99.90;;;;;;10468274;28;20206;-78
2023/03/16 10:15:31;;;;;;;6.73;3.27;;;4.60;99.90;;;;;;10446750;28;20218;-79
2023/03/16 10:21:02;;;;;;;13.73;6.63;;;4.80;99.90;;;;;;10458199;28;20219;-80
2023/03/16 10:26:38;;;;;;;14.77;7.10;;;5.20;99.90;;;;;;10471847;28;20206;-78
2023/03/16 10:32:06;;;;;;;5.37;2.60;;;5.40;99.90;;;;;;10471562;28;20208;-80
2023/03/16 10:37:29;;;;;;;6.97;3.00;;;5.40;99.90;;;;;;10475977;28;20215;-80
2023/03/16 10:42:52;;;;;;;5.37;2.33;;;5.40;99.90;;;;;;10454416;28;20533;-80
2023/03/16 10:48:20;;;;;;;39.80;19.47;;;5.50;99.90;;;;;;10468707;28;20290;-78
2023/03/16 10:53:43;;;;;;;6.87;4.17;;;5.50;99.90;;;;;;10472666;28;20206;-83
2023/03/16 10:59:28;;;;;;;4.07;1.90;;;5.30;99.90;;;;;;10426743;28;20284;-80
2023/03/16 11:04:51;;;;;;;4.50;2.07;;;5.10;99.90;;;;;;10455403;28;20231;-78
2023/03/16 11:10:34;;;;;;;3.43;2.07;;;4.80;99.90;;;;;;10485622;28;20211;-80
2023/03/16 11:16:19;;;;;;;3.60;2.20;;;4.70;99.90;;;;;;10485355;28;20436;-82
2023/03/16 11:21:53;;;;;;;3.50;2.17;;;4.70;99.90;;;;;;10437562;28;20297;-80
2023/03/16 11:27:43;;;;;;;2.77;1.80;;;5.90;99.90;;;;;;10466284;28;20206;-84
2023/03/16 11:33:10;;;;;;;5.50;2.70;;;8.80;99.90;;;;;;10491928;28;20208;-81
2023/03/16 11:38:40;;;;;;;14.57;6.23;;;9.90;98.80;;;;;;10470137;28;20235;-81
2023/03/16 11:44:07;;;;;;;2.13;1.60;;;9.10;97.40;;;;;;10448714;28;20729;-79
2023/03/16 11:49:51;;;;;;;3.80;1.97;;;6.40;99.90;;;;;;10477728;28;20198;-79
2023/03/16 11:55:30;;;;;;;4.77;3.27;;;5.40;99.90;;;;;;10447910;28;20253;-81
2023/03/16 12:01:07;;;;;;;6.70;3.83;;;5.40;99.90;;;;;;10473961;28;20499;-80
2023/03/16 12:06:42;;;;;;;13.17;4.93;;;6.50;99.90;;;;;;10476394;28;20199;-81
2023/03/16 12:12:28;;;;;;;10.97;5.77;;;7.60;99.90;;;;;;10440576;28;20200;-82
2023/03/16 12:17:54;;;;;;;17.23;7.60;;;8.90;99.90;;;;;;10498521;28;20200;-81
2023/03/16 12:23:52;;;;;;;8.97;3.20;;;9.50;95.10;;;;;;10460951;28;20261;-81
2023/03/16 12:29:27;;;;;;;5.73;3.47;;;10.10;77.30;;;;;;10414800;28;20305;-84
2023/03/16 12:34:58;;;;;;;4.67;2.47;;;10.70;65.60;;;;;;10426261;28;20207;-80
2023/03/16 12:40:25;;;;;;;16.17;8.50;;;10.30;55.30;;;;;;10427368;28;20238;-78
2023/03/16 12:46:03;;;;;;;12.07;5.87;;;10.20;63.30;;;;;;10425206;28;20275;-80
2023/03/16 12:51:41;;;;;;;7.47;3.20;;;10.20;61.60;;;;;;10398361;28;20298;-81
2023/03/16 12:57:08;;;;;;;10.30;3.77;;;10.60;44.40;;;;;;10392937;28;20329;-82
2023/03/16 13:02:33;;;;;;;8.57;4.03;;;11.20;37.10;;;;;;10422634;28;20251;-81
2023/03/16 13:08:09;;;;;;;18.67;8.47;;;11.40;36.60;;;;;;10470972;28;20253;-77
2023/03/16 13:13:31;;;;;;;3.70;1.87;;;11.40;29.50;;;;;;10482059;28;20210;-78
2023/03/16 13:18:53;;;;;;;11.97;4.30;;;10.10;32.10;;;;;;10423714;28;20189;-82
2023/03/16 13:24:25;;;;;;;6.80;2.67;;;9.10;44.90;;;;;;10471783;28;20223;-79
2023/03/16 13:29:57;;;;;;;10.33;3.53;;;9.60;47.80;;;;;;10505803;28;20219;-79
2023/03/16 13:35:21;;;;;;;11.63;3.77;;;10.00;37.20;;;;;;10500670;28;20227;-81
2023/03/16 13:40:49;;;;;;;7.13;2.37;;;10.00;33.30;;;;;;10507301;28;20222;-80
2023/03/16 13:46:28;;;;;;;16.27;5.97;;;9.70;29.30;;;;;;10510709;28;20556;-87
2023/03/16 13:51:51;;;;;;;19.00;8.20;;;9.30;32.80;;;;;;10500249;28;20203;-90
2023/03/16 13:57:14;;;;;;;20.40;7.20;;;9.00;35.40;;;;;;10488540;28;20412;-88
2023/03/16 14:02:42;;;;;;;14.07;5.43;;;8.70;31.20;;;;;;10490695;28;20244;-87
2023/03/16 14:08:15;;;;;;;5.07;2.03;;;8.90;33.20;;;;;;10488321;28;20208;-79
2023/03/16 14:13:38;;;;;;;7.73;3.80;;;8.80;27.90;;;;;;10498958;28;20196;-78
2023/03/16 14:19:07;;;;;;;6.00;2.70;;;8.60;26.80;;;;;;10488244;28;20241;-85
2023/03/16 14:24:34;;;;;;;6.80;4.17;;;8.40;24.50;;;;;;10505321;28;20267;-82
2023/03/16 14:30:17;;;;;;;24.70;7.80;;;7.50;26.20;;;;;;10474637;28;20229;-79
2023/03/16 14:35:41;;;;;;;10.20;4.90;;;7.20;28.90;;;;;;10513040;28;20398;-79
2023/03/16 14:41:23;;;;;;;11.03;5.90;;;7.00;29.90;;;;;;10512876;28;20202;-85
2023/03/16 14:46:45;;;;;;;13.80;6.53;;;6.80;31.30;;;;;;10497056;28;20608;-80
2023/03/16 14:52:20;;;;;;;12.00;5.13;;;6.70;28.10;;;;;;10516920;28;20198;-83
2023/03/16 14:57:44;;;;;;;11.20;5.23;;;6.70;27.70;;;;;;10534385;28;20238;-82
2023/03/16 15:03:11;;;;;;;50.30;21.53;;;6.70;29.80;;;;;;10520621;28;20600;-83
2023/03/16 15:08:35;;;;;;;147.40;58.40;;;6.80;30.10;;;;;;10530484;28;20550;-80
2023/03/16 15:14:13;;;;;;;270.60;94.80;;;7.30;27.40;;;;;;10518068;28;20204;-81
2023/03/16 15:19:34;;;;;;;30.30;14.80;;;7.40;27.40;;;;;;10503607;28;20201;-83
2023/03/16 15:24:57;;;;;;;6.37;3.40;;;7.10;27.70;;;;;;10500024;28;20589;-80
2023/03/16 15:30:22;;;;;;;12.03;7.63;;;6.90;28.40;;;;;;10500765;28;20483;-79
2023/03/16 15:35:46;;;;;;;15.13;8.30;;;6.70;27.40;;;;;;10499035;28;20202;-80
2023/03/16 15:41:10;;;;;;;15.43;6.60;;;6.30;25.90;;;;;;10519487;28;20255;-79
2023/03/16 15:46:31;;;;;;;14.23;4.63;;;6.10;26.10;;;;;;10515375;28;20262;-81
2023/03/16 15:51:52;;;;;;;7.17;3.20;;;6.00;28.40;;;;;;10515366;28;20233;-80
2023/03/16 15:57:13;;;;;;;17.60;6.27;;;5.90;29.00;;;;;;10494020;28;20526;-80
2023/03/16 16:02:35;;;;;;;26.47;13.43;;;5.90;30.20;;;;;;10499604;28;20215;-84
2023/03/16 16:07:57;;;;;;;39.63;19.95;;;5.90;36.60;;;;;;10498011;28;20544;-80
2023/03/16 16:13:27;;;;;;;29.77;16.47;;;5.80;91.70;;;;;;10519408;28;20194;-80
2023/03/16 16:19:03;;;;;;;9.70;5.83;;;5.80;99.90;;;;;;10519602;28;20249;-80
2023/03/16 16:24:24;;;;;;;16.03;8.17;;;5.70;91.00;;;;;;10522462;28;20229;-81
2023/03/16 16:29:46;;;;;;;18.53;9.73;;;5.70;75.40;;;;;;10503598;28;20240;-80
2023/03/16 16:35:25;;;;;;;23.90;12.63;;;5.50;71.40;;;;;;10519543;28;20287;-81
2023/03/16 16:40:47;;;;;;;36.07;17.33;;;5.40;99.90;;;;;;10470194;28;20203;-80
2023/03/16 16:46:15;;;;;;;43.30;22.43;;;5.20;97.40;;;;;;10506450;28;20249;-80
2023/03/16 16:51:36;;;;;;;43.03;24.50;;;5.20;99.90;;;;;;10522406;28;20209;-81
2023/03/16 16:57:00;;;;;;;40.50;24.50;;;5.10;99.90;;;;;;10521256;28;20241;-82
2023/03/16 17:02:40;;;;;;;57.33;31.70;;;5.00;99.90;;;;;;10520275;28;20496;-80
2023/03/16 17:08:03;;;;;;;63.53;33.47;;;4.90;99.90;;;;;;10492553;28;20202;-80
2023/03/16 17:13:30;;;;;;;63.33;37.83;;;4.80;99.90;;;;;;10519946;28;20425;-81
2023/03/16 17:18:51;;;;;;;74.60;38.67;;;4.70;99.90;;;;;;10519145;28;20207;-80
2023/03/16 17:24:13;;;;;;;96.03;49.83;;;4.50;48.80;;;;;;10505727;28;20313;-81
2023/03/16 17:29:35;;;;;;;101.73;48.97;;;4.40;53.10;;;;;;10505562;28;20194;-80
2023/03/16 17:34:56;;;;;;;126.07;56.03;;;4.30;56.80;;;;;;10503325;28;20218;-80
2023/03/16 17:40:20;;;;;;;166.57;80.87;;;4.20;59.80;;;;;;10536068;28;20238;-79
2023/03/16 17:45:42;;;;;;;167.40;81.17;;;4.00;66.10;;;;;;10504447;28;20227;-80
2023/03/16 17:51:04;;;;;;;200.97;102.57;;;4.00;64.80;;;;;;10518313;28;20205;-81
2023/03/16 17:56:26;;;;;;;189.67;90.87;;;3.80;74.70;;;;;;10520370;28;20342;-81
2023/03/16 18:01:47;;;;;;;158.73;73.33;;;3.80;80.90;;;;;;10520439;28;20277;-80
2023/03/16 18:07:22;;;;;;;208.73;88.43;;;3.70;81.10;;;;;;10506179;28;20206;-81
2023/03/16 18:12:44;;;;;;;200.73;86.40;;;3.60;83.10;;;;;;10519991;28;20248;-80
2023/03/16 18:18:06;;;;;;;263.70;124.73;;;3.60;81.60;;;;;;10504109;28;20197;-81
2023/03/16 18:23:33;;;;;;;273.07;132.43;;;3.40;80.90;;;;;;10463562;28;20546;-80
2023/03/16 18:28:55;;;;;;;165.57;86.10;;;3.40;79.90;;;;;;10470371;28;20194;-79
2023/03/16 18:34:22;;;;;;;133.47;66.20;;;3.30;86.00;;;;;;10498584;28;20432;-79
2023/03/16 18:39:44;;;;;;;124.23;60.00;;;3.10;92.30;;;;;;10485127;28;20199;-81
2023/03/16 18:45:12;;;;;;;98.80;45.47;;;3.10;88.70;;;;;;10537323;28;20228;-81
2023/03/16 18:50:33;;;;;;;110.00;43.83;;;3.00;91.90;;;;;;10511183;28;20208;-80
2023/03/16 18:55:55;;;;;;;105.67;43.70;;;2.80;94.40;;;;;;10526911;28;20245;-82
2023/03/16 19:01:25;;;;;;;97.20;45.03;;;2.80;94.10;;;;;;10525608;28;20197;-80
2023/03/16 19:06:47;;;;;;;115.87;50.97;;;2.60;92.30;;;;;;10510732;28;20308;-78
2023/03/16 19:12:15;;;;;;;111.73;48.73;;;2.50;94.00;;;;;;10525404;28;20214;-80
2023/03/16 19:17:36;;;;;;;203.10;80.37;;;2.50;95.10;;;;;;10510432;28;20205;-79
2023/03/16 19:23:05;;;;;;;278.53;108.90;;;2.40;93.10;;;;;;10496755;28;20229;-78
2023/03/16 19:28:33;;;;;;;223.23;87.90;;;2.30;95.90;;;;;;10510664;28;20224;-80
2023/03/16 19:33:55;;;;;;;251.73;103.90;;;2.20;98.00;;;;;;10509587;28;20209;-79
2023/03/16 19:39:17;;;;;;;154.83;65.33;;;2.10;98.30;;;;;;10524378;28;20370;-81
2023/03/16 19:44:38;;;;;;;143.90;59.93;;;2.00;99.20;;;;;;10523807;28;20577;-80
2023/03/16 19:50:01;;;;;;;180.30;80.13;;;1.80;99.90;;;;;;10467334;28;20553;-82
2023/03/16 19:55:27;;;;;;;183.13;80.13;;;1.70;99.90;;;;;;10472700;28;20313;-80
2023/03/16 20:00:49;;;;;;;180.73;77.20;;;1.70;99.90;;;;;;10523672;28;20399;-80
2023/03/16 20:06:16;;;;;;;151.13;65.37;;;1.70;99.90;;;;;;10494028;28;20461;-80
2023/03/16 20:11:37;;;;;;;163.10;69.10;;;1.60;99.90;;;;;;10482570;28;20308;-80
2023/03/16 20:16:59;;;;;;;155.07;69.37;;;1.50;99.90;;;;;;10499912;28;20197;-78
2023/03/16 20:22:26;;;;;;;154.00;67.83;;;1.50;99.90;;;;;;10508539;28;20502;-79
2023/03/16 20:27:54;;;;;;;165.13;68.40;;;1.40;99.90;;;;;;10522242;28;20248;-78
2023/03/16 20:33:17;;;;;;;159.80;71.00;;;1.50;99.90;;;;;;10492905;28;20209;-78
2023/03/16 20:38:38;;;;;;;184.97;85.40;;;1.50;99.90;;;;;;10522835;28;20189;-78
2023/03/16 20:44:00;;;;;;;196.40;87.97;;;1.40;99.90;;;;;;10507442;28;20225;-79
2023/03/16 20:49:22;;;;;;;205.57;90.70;;;1.40;99.90;;;;;;10479471;28;20499;-79
2023/03/16 20:54:45;;;;;;;202.13;95.20;;;1.30;99.90;;;;;;10507130;28;20203;-80
2023/03/16 21:00:16;;;;;;;211.83;99.40;;;1.20;99.90;;;;;;10507026;28;20199;-80
2023/03/16 21:05:39;;;;;;;216.40;99.60;;;1.20;99.90;;;;;;10520304;28;20252;-80
2023/03/16 21:11:00;;;;;;;230.87;103.77;;;1.30;99.90;;;;;;10504906;28;20247;-80
2023/03/16 21:16:21;;;;;;;201.53;93.10;;;1.30;99.90;;;;;;10465052;28;20201;-80
2023/03/16 21:21:42;;;;;;;208.10;94.80;;;1.30;99.90;;;;;;10464554;28;20207;-80
2023/03/16 21:27:04;;;;;;;205.60;95.83;;;1.20;99.90;;;;;;10504960;28;20541;-80
2023/03/16 21:32:26;;;;;;;202.83;91.53;;;1.20;99.90;;;;;;10519024;28;20207;-80
2023/03/16 21:37:48;;;;;;;194.93;86.27;;;1.20;99.90;;;;;;10475212;28;20246;-80
2023/03/16 21:43:09;;;;;;;204.73;91.13;;;1.10;99.90;;;;;;10495726;28;20231;-80
2023/03/16 21:48:40;;;;;;;216.23;93.57;;;1.00;99.90;;;;;;10478286;28;20234;-80
2023/03/16 21:54:01;;;;;;;208.60;93.77;;;1.00;99.90;;;;;;10513353;28;20204;-80
2023/03/16 21:59:22;;;;;;;204.80;91.80;;;0.90;99.90;;;;;;10491293;28;20240;-80
2023/03/16 22:04:43;;;;;;;210.47;88.30;;;0.90;99.90;;;;;;10463309;28;20254;-80
2023/03/16 22:10:13;;;;;;;219.33;86.00;;;0.90;99.90;;;;;;10503658;28;20207;-80
2023/03/16 22:15:34;;;;;;;212.90;89.70;;;0.90;99.90;;;;;;10518906;28;20195;-80
2023/03/16 22:20:57;;;;;;;201.93;83.53;;;0.90;99.90;;;;;;10503413;28;20292;-80
2023/03/16 22:26:20;;;;;;;175.27;75.20;;;0.90;99.90;;;;;;10504345;28;20232;-80
2023/03/16 22:31:41;;;;;;;162.33;66.30;;;0.90;99.90;;;;;;10504162;28;20201;-80
2023/03/16 22:37:03;;;;;;;155.40;59.13;;;0.90;99.90;;;;;;10503071;28;20204;-80
2023/03/16 22:42:34;;;;;;;154.10;64.43;;;1.00;99.90;;;;;;10504053;28;20209;-79
2023/03/16 22:47:58;;;;;;;151.07;55.97;;;1.20;99.90;;;;;;10503988;28;20204;-80
2023/03/16 22:53:34;;;;;;;140.93;55.70;;;1.10;99.90;;;;;;10517439;28;20249;-79
2023/03/16 22:58:59;;;;;;;126.57;50.27;;;1.10;99.90;;;;;;10502999;28;20538;-78
2023/03/16 23:04:24;;;;;;;108.53;45.27;;;1.10;99.90;;;;;;10517742;28;20242;-79
2023/03/16 23:09:48;;;;;;;93.43;40.53;;;1.10;99.90;;;;;;10517003;28;20200;-78
2023/03/16 23:15:28;;;;;;;86.50;38.33;;;1.10;99.90;;;;;;10510413;28;20250;-80
2023/03/16 23:20:50;;;;;;;89.53;36.50;;;1.10;99.90;;;;;;10523713;28;20211;-80
2023/03/16 23:26:16;;;;;;;76.63;31.50;;;1.00;99.90;;;;;;10510107;28;20306;-78
2023/03/16 23:31:37;;;;;;;84.07;30.73;;;1.10;99.90;;;;;;10525709;28;20479;-80
2023/03/16 23:36:58;;;;;;;63.80;30.13;;;1.10;99.90;;;;;;10494143;28;20408;-78
2023/03/16 23:42:19;;;;;;;60.27;26.53;;;1.10;99.90;;;;;;10495500;28;20205;-80
2023/03/16 23:47:40;;;;;;;57.60;23.33;;;1.10;99.90;;;;;;10509446;28;20196;-80
2023/03/16 23:53:02;;;;;;;54.40;25.43;;;1.20;99.90;;;;;;10540447;28;20204;-77
2023/03/16 23:58:23;;;;;;;58.10;25.00;;;1.20;99.90;;;;;;10523502;28;20525;-78
